sensor_id;sensor_type;location;lat;lon;timestamp;temperature;humidity
6054;DHT22;3055;50.886;14.814;2023-09-30T00:00:07;19.90;99.90
6054;DHT22;3055;50.886;14.814;2023-09-30T00:02:36;20.00;99.90
6054;DHT22;3055;50.886;14.814;2023-09-30T00:05:04;20.00;36.50
6054;DHT22;3055;50.886;14.814;2023-09-30T00:07:31;20.10;1.00
6054;DHT22;3055;50.886;14.814;2023-09-30T00:09:58;20.10;1.00
6054;DHT22;3055;50.886;14.814;2023-09-30T00:12:25;20.20;1.00
6054;DHT22;3055;50.886;14.814;2023-09-30T00:14:52;20.20;1.00
6054;DHT22;3055;50.886;14.814;2023-09-30T00:17:20;20.20;1.00
6054;DHT22;3055;50.886;14.814;2023-09-30T00:19:48;20.20;1.00
6054;DHT22;3055;50.886;14.814;2023-09-30T00:22:15;20.20;1.00
6054;DHT22;3055;50.886;14.814;2023-09-30T00:24:42;20.20;1.00
6054;DHT22;3055;50.886;14.814;2023-09-30T00:27:09;20.10;1.00
6054;DHT22;3055;50.886;14.814;2023-09-30T00:29:36;20.10;1.00
6054;DHT22;3055;50.886;14.814;2023-09-30T00:32:03;20.20;1.00
6054;DHT22;3055;50.886;14.814;2023-09-30T00:34:33;20.20;1.00
6054;DHT22;3055;50.886;14.814;2023-09-30T00:37:01;20.10;1.00
6054;DHT22;3055;50.886;14.814;2023-09-30T00:39:28;20.20;1.00
6054;DHT22;3055;50.886;14.814;2023-09-30T00:41:57;20.20;1.00
6054;DHT22;3055;50.886;14.814;2023-09-30T00:44:25;20.20;1.00
6054;DHT22;3055;50.886;14.814;2023-09-30T00:46:53;20.20;1.00
6054;DHT22;3055;50.886;14.814;2023-09-30T00:49:21;20.10;1.00
6054;DHT22;3055;50.886;14.814;2023-09-30T00:51:49;20.20;1.00
6054;DHT22;3055;50.886;14.814;2023-09-30T00:54:19;20.10;1.00
6054;DHT22;3055;50.886;14.814;2023-09-30T00:56:47;20.10;1.00
6054;DHT22;3055;50.886;14.814;2023-09-30T00:59:15;20.10;1.00
6054;DHT22;3055;50.886;14.814;2023-09-30T01:01:44;20.00;1.00
6054;DHT22;3055;50.886;14.814;2023-09-30T01:04:11;20.00;1.00
6054;DHT22;3055;50.886;14.814;2023-09-30T01:06:38;20.00;1.00
6054;DHT22;3055;50.886;14.814;2023-09-30T01:09:06;20.00;1.00
6054;DHT22;3055;50.886;14.814;2023-09-30T01:11:36;20.00;1.00
6054;DHT22;3055;50.886;14.814;2023-09-30T01:14:03;19.90;1.00
6054;DHT22;3055;50.886;14.814;2023-09-30T01:16:30;19.90;1.00
6054;DHT22;3055;50.886;14.814;2023-09-30T01:18:57;19.80;1.00
6054;DHT22;3055;50.886;14.814;2023-09-30T01:21:24;19.80;1.00
6054;DHT22;3055;50.886;14.814;2023-09-30T01:23:54;19.70;1.00
6054;DHT22;3055;50.886;14.814;2023-09-30T01:26:21;19.60;1.00
6054;DHT22;3055;50.886;14.814;2023-09-30T01:28:49;19.50;1.00
6054;DHT22;3055;50.886;14.814;2023-09-30T01:31:16;19.30;1.00
6054;DHT22;3055;50.886;14.814;2023-09-30T01:33:43;19.20;99.90
6054;DHT22;3055;50.886;14.814;2023-09-30T01:36:10;19.10;1.00
6054;DHT22;3055;50.886;14.814;2023-09-30T01:38:37;19.10;1.00
6054;DHT22;3055;50.886;14.814;2023-09-30T01:41:06;19.20;1.00
6054;DHT22;3055;50.886;14.814;2023-09-30T01:43:33;19.20;1.00
6054;DHT22;3055;50.886;14.814;2023-09-30T01:46:02;19.30;1.00
6054;DHT22;3055;50.886;14.814;2023-09-30T01:48:30;19.20;1.00
6054;DHT22;3055;50.886;14.814;2023-09-30T01:50:57;19.20;99.90
6054;DHT22;3055;50.886;14.814;2023-09-30T01:53:24;19.20;99.90
6054;DHT22;3055;50.886;14.814;2023-09-30T01:55:51;19.30;99.90
6054;DHT22;3055;50.886;14.814;2023-09-30T01:58:19;19.30;99.90
6054;DHT22;3055;50.886;14.814;2023-09-30T02:00:46;19.30;99.90
6054;DHT22;3055;50.886;14.814;2023-09-30T02:03:13;19.30;99.90
6054;DHT22;3055;50.886;14.814;2023-09-30T02:05:40;19.30;99.90
6054;DHT22;3055;50.886;14.814;2023-09-30T02:08:07;19.20;99.90
6054;DHT22;3055;50.886;14.814;2023-09-30T02:10:34;19.10;1.00
6054;DHT22;3055;50.886;14.814;2023-09-30T02:13:01;19.00;99.90
6054;DHT22;3055;50.886;14.814;2023-09-30T02:15:33;19.00;99.90
6054;DHT22;3055;50.886;14.814;2023-09-30T02:18:00;19.00;1.00
6054;DHT22;3055;50.886;14.814;2023-09-30T02:20:27;19.10;99.90
6054;DHT22;3055;50.886;14.814;2023-09-30T02:22:56;19.00;1.00
6054;DHT22;3055;50.886;14.814;2023-09-30T02:25:24;19.00;18.70
6054;DHT22;3055;50.886;14.814;2023-09-30T02:27:51;19.00;1.00
6054;DHT22;3055;50.886;14.814;2023-09-30T02:30:18;19.00;1.00
6054;DHT22;3055;50.886;14.814;2023-09-30T02:32:48;18.90;1.00
6054;DHT22;3055;50.886;14.814;2023-09-30T02:35:15;18.80;99.90
6054;DHT22;3055;50.886;14.814;2023-09-30T02:37:42;18.80;99.90
6054;DHT22;3055;50.886;14.814;2023-09-30T02:40:09;18.80;1.00
6054;DHT22;3055;50.886;14.814;2023-09-30T02:42:37;18.80;99.90
6054;DHT22;3055;50.886;14.814;2023-09-30T02:45:04;18.70;1.00
6054;DHT22;3055;50.886;14.814;2023-09-30T02:47:32;18.60;1.00
6054;DHT22;3055;50.886;14.814;2023-09-30T02:50:01;18.60;99.90
6054;DHT22;3055;50.886;14.814;2023-09-30T02:52:30;18.50;99.90
6054;DHT22;3055;50.886;14.814;2023-09-30T02:54:58;18.50;99.90
6054;DHT22;3055;50.886;14.814;2023-09-30T02:57:25;18.50;99.90
6054;DHT22;3055;50.886;14.814;2023-09-30T02:59:53;18.50;1.00
6054;DHT22;3055;50.886;14.814;2023-09-30T03:02:22;18.60;1.00
6054;DHT22;3055;50.886;14.814;2023-09-30T03:04:49;18.60;1.00
6054;DHT22;3055;50.886;14.814;2023-09-30T03:07:20;18.60;1.00
6054;DHT22;3055;50.886;14.814;2023-09-30T03:09:48;18.60;1.00
6054;DHT22;3055;50.886;14.814;2023-09-30T03:12:16;18.50;1.00
6054;DHT22;3055;50.886;14.814;2023-09-30T03:14:43;18.40;1.00
6054;DHT22;3055;50.886;14.814;2023-09-30T03:17:10;18.30;1.00
6054;DHT22;3055;50.886;14.814;2023-09-30T03:19:38;18.10;1.00
6054;DHT22;3055;50.886;14.814;2023-09-30T03:22:05;17.90;1.00
6054;DHT22;3055;50.886;14.814;2023-09-30T03:24:38;17.80;1.00
6054;DHT22;3055;50.886;14.814;2023-09-30T03:27:05;17.70;1.00
6054;DHT22;3055;50.886;14.814;2023-09-30T03:29:35;17.50;1.00
6054;DHT22;3055;50.886;14.814;2023-09-30T03:32:02;17.60;1.00
6054;DHT22;3055;50.886;14.814;2023-09-30T03:34:29;17.50;1.00
6054;DHT22;3055;50.886;14.814;2023-09-30T03:36:56;17.50;1.00
6054;DHT22;3055;50.886;14.814;2023-09-30T03:39:25;17.30;1.00
6054;DHT22;3055;50.886;14.814;2023-09-30T03:41:54;17.30;1.00
6054;DHT22;3055;50.886;14.814;2023-09-30T03:44:21;17.30;1.00
6054;DHT22;3055;50.886;14.814;2023-09-30T03:46:50;17.20;99.90
6054;DHT22;3055;50.886;14.814;2023-09-30T03:49:17;17.20;99.90
6054;DHT22;3055;50.886;14.814;2023-09-30T03:51:45;17.20;99.90
6054;DHT22;3055;50.886;14.814;2023-09-30T03:54:12;17.10;99.90
6054;DHT22;3055;50.886;14.814;2023-09-30T03:56:39;17.00;85.40
6054;DHT22;3055;50.886;14.814;2023-09-30T03:59:08;17.00;99.90
6054;DHT22;3055;50.886;14.814;2023-09-30T04:01:35;16.90;99.90
6054;DHT22;3055;50.886;14.814;2023-09-30T04:04:06;16.90;99.90
6054;DHT22;3055;50.886;14.814;2023-09-30T04:06:36;16.90;99.90
6054;DHT22;3055;50.886;14.814;2023-09-30T04:09:04;16.90;99.90
6054;DHT22;3055;50.886;14.814;2023-09-30T04:11:35;16.90;99.90
6054;DHT22;3055;50.886;14.814;2023-09-30T04:14:03;16.90;99.90
6054;DHT22;3055;50.886;14.814;2023-09-30T04:16:31;17.00;87.20
6054;DHT22;3055;50.886;14.814;2023-09-30T04:18:59;16.90;99.90
6054;DHT22;3055;50.886;14.814;2023-09-30T04:21:26;17.00;1.00
6054;DHT22;3055;50.886;14.814;2023-09-30T04:23:55;16.90;1.00
6054;DHT22;3055;50.886;14.814;2023-09-30T04:26:23;16.90;99.90
6054;DHT22;3055;50.886;14.814;2023-09-30T04:28:50;16.80;99.90
6054;DHT22;3055;50.886;14.814;2023-09-30T04:31:19;16.80;1.00
6054;DHT22;3055;50.886;14.814;2023-09-30T04:33:48;16.80;99.90
6054;DHT22;3055;50.886;14.814;2023-09-30T04:36:16;16.80;1.00
6054;DHT22;3055;50.886;14.814;2023-09-30T04:38:43;16.80;99.90
6054;DHT22;3055;50.886;14.814;2023-09-30T04:41:10;16.70;99.90
6054;DHT22;3055;50.886;14.814;2023-09-30T04:43:38;16.70;99.90
6054;DHT22;3055;50.886;14.814;2023-09-30T04:46:06;16.70;99.90
6054;DHT22;3055;50.886;14.814;2023-09-30T04:48:34;16.70;1.00
6054;DHT22;3055;50.886;14.814;2023-09-30T04:51:06;16.60;99.90
6054;DHT22;3055;50.886;14.814;2023-09-30T04:53:33;16.40;99.90
6054;DHT22;3055;50.886;14.814;2023-09-30T04:56:00;16.30;99.90
6054;DHT22;3055;50.886;14.814;2023-09-30T04:58:27;16.40;99.90
6054;DHT22;3055;50.886;14.814;2023-09-30T05:00:55;16.30;99.90
6054;DHT22;3055;50.886;14.814;2023-09-30T05:03:22;16.30;99.90
6054;DHT22;3055;50.886;14.814;2023-09-30T05:05:51;16.30;97.40
6054;DHT22;3055;50.886;14.814;2023-09-30T05:08:22;16.30;99.90
6054;DHT22;3055;50.886;14.814;2023-09-30T05:10:49;16.30;91.90
6054;DHT22;3055;50.886;14.814;2023-09-30T05:13:16;16.30;1.00
6054;DHT22;3055;50.886;14.814;2023-09-30T05:15:44;16.10;1.00
6054;DHT22;3055;50.886;14.814;2023-09-30T05:18:12;16.00;1.00
6054;DHT22;3055;50.886;14.814;2023-09-30T05:20:39;15.90;1.00
6054;DHT22;3055;50.886;14.814;2023-09-30T05:23:06;15.90;1.00
6054;DHT22;3055;50.886;14.814;2023-09-30T05:25:35;15.80;1.00
6054;DHT22;3055;50.886;14.814;2023-09-30T05:28:03;15.80;1.00
6054;DHT22;3055;50.886;14.814;2023-09-30T05:30:31;15.80;1.00
6054;DHT22;3055;50.886;14.814;2023-09-30T05:32:59;15.70;1.00
6054;DHT22;3055;50.886;14.814;2023-09-30T05:35:27;15.60;1.00
6054;DHT22;3055;50.886;14.814;2023-09-30T05:37:54;15.50;1.00
6054;DHT22;3055;50.886;14.814;2023-09-30T05:40:21;15.50;1.00
6054;DHT22;3055;50.886;14.814;2023-09-30T05:45:20;15.40;1.90
6054;DHT22;3055;50.886;14.814;2023-09-30T05:47:49;15.30;1.00
6054;DHT22;3055;50.886;14.814;2023-09-30T05:50:18;15.40;4.20
6054;DHT22;3055;50.886;14.814;2023-09-30T05:52:49;15.40;25.00
6054;DHT22;3055;50.886;14.814;2023-09-30T05:55:16;15.40;24.30
6054;DHT22;3055;50.886;14.814;2023-09-30T05:57:46;15.50;6.20
6054;DHT22;3055;50.886;14.814;2023-09-30T06:00:14;15.50;6.20
6054;DHT22;3055;50.886;14.814;2023-09-30T06:02:54;15.60;1.00
6054;DHT22;3055;50.886;14.814;2023-09-30T06:05:21;15.60;1.00
6054;DHT22;3055;50.886;14.814;2023-09-30T06:07:49;15.60;1.00
6054;DHT22;3055;50.886;14.814;2023-09-30T06:10:16;15.60;1.00
6054;DHT22;3055;50.886;14.814;2023-09-30T06:12:45;15.60;1.00
6054;DHT22;3055;50.886;14.814;2023-09-30T06:15:14;15.50;1.00
6054;DHT22;3055;50.886;14.814;2023-09-30T06:17:41;15.50;1.00
6054;DHT22;3055;50.886;14.814;2023-09-30T06:20:10;15.50;1.00
6054;DHT22;3055;50.886;14.814;2023-09-30T06:22:42;15.50;1.00
6054;DHT22;3055;50.886;14.814;2023-09-30T06:25:11;15.30;1.00
6054;DHT22;3055;50.886;14.814;2023-09-30T06:27:38;15.40;1.00
6054;DHT22;3055;50.886;14.814;2023-09-30T06:30:06;15.30;1.00
6054;DHT22;3055;50.886;14.814;2023-09-30T06:32:36;15.30;1.00
6054;DHT22;3055;50.886;14.814;2023-09-30T06:35:03;15.30;1.00
6054;DHT22;3055;50.886;14.814;2023-09-30T06:37:31;15.50;1.00
6054;DHT22;3055;50.886;14.814;2023-09-30T06:39:59;15.60;1.00
6054;DHT22;3055;50.886;14.814;2023-09-30T06:42:31;15.70;1.00
6054;DHT22;3055;50.886;14.814;2023-09-30T06:44:58;15.80;1.00
6054;DHT22;3055;50.886;14.814;2023-09-30T06:47:25;16.00;1.00
6054;DHT22;3055;50.886;14.814;2023-09-30T06:49:54;16.00;1.00
6054;DHT22;3055;50.886;14.814;2023-09-30T06:52:22;16.00;1.00
6054;DHT22;3055;50.886;14.814;2023-09-30T06:54:52;16.00;1.00
6054;DHT22;3055;50.886;14.814;2023-09-30T06:57:19;16.00;1.00
6054;DHT22;3055;50.886;14.814;2023-09-30T06:59:46;16.10;1.00
6054;DHT22;3055;50.886;14.814;2023-09-30T07:02:16;16.20;99.90
6054;DHT22;3055;50.886;14.814;2023-09-30T07:04:43;16.30;99.90
6054;DHT22;3055;50.886;14.814;2023-09-30T07:07:11;16.30;99.90
6054;DHT22;3055;50.886;14.814;2023-09-30T07:09:38;16.30;99.90
6054;DHT22;3055;50.886;14.814;2023-09-30T07:12:06;16.40;99.90
6054;DHT22;3055;50.886;14.814;2023-09-30T07:14:33;16.50;99.90
6054;DHT22;3055;50.886;14.814;2023-09-30T07:17:00;16.50;99.90
6054;DHT22;3055;50.886;14.814;2023-09-30T07:19:30;16.40;99.90
6054;DHT22;3055;50.886;14.814;2023-09-30T07:21:57;16.30;99.90
6054;DHT22;3055;50.886;14.814;2023-09-30T07:24:25;16.30;99.90
6054;DHT22;3055;50.886;14.814;2023-09-30T07:26:53;16.30;99.90
6054;DHT22;3055;50.886;14.814;2023-09-30T07:29:20;16.30;99.90
6054;DHT22;3055;50.886;14.814;2023-09-30T07:31:48;16.40;99.90
6054;DHT22;3055;50.886;14.814;2023-09-30T07:34:16;16.50;99.90
6054;DHT22;3055;50.886;14.814;2023-09-30T07:36:43;16.60;99.90
6054;DHT22;3055;50.886;14.814;2023-09-30T07:39:10;16.60;99.90
6054;DHT22;3055;50.886;14.814;2023-09-30T07:41:39;16.50;99.90
6054;DHT22;3055;50.886;14.814;2023-09-30T07:44:06;16.50;99.90
6054;DHT22;3055;50.886;14.814;2023-09-30T07:46:35;16.60;99.90
6054;DHT22;3055;50.886;14.814;2023-09-30T07:49:02;16.70;99.90
6054;DHT22;3055;50.886;14.814;2023-09-30T07:51:30;16.90;99.90
6054;DHT22;3055;50.886;14.814;2023-09-30T07:53:57;17.10;99.90
6054;DHT22;3055;50.886;14.814;2023-09-30T07:56:24;17.10;99.90
6054;DHT22;3055;50.886;14.814;2023-09-30T07:58:53;17.20;99.90
6054;DHT22;3055;50.886;14.814;2023-09-30T08:01:20;17.30;99.90
6054;DHT22;3055;50.886;14.814;2023-09-30T08:03:47;17.20;99.90
6054;DHT22;3055;50.886;14.814;2023-09-30T08:06:14;17.10;99.90
6054;DHT22;3055;50.886;14.814;2023-09-30T08:08:41;17.10;99.90
6054;DHT22;3055;50.886;14.814;2023-09-30T08:11:08;17.00;99.90
6054;DHT22;3055;50.886;14.814;2023-09-30T08:13:35;17.00;99.90
6054;DHT22;3055;50.886;14.814;2023-09-30T08:16:05;16.90;99.90
6054;DHT22;3055;50.886;14.814;2023-09-30T08:18:32;16.80;99.90
6054;DHT22;3055;50.886;14.814;2023-09-30T08:20:59;16.90;99.90
6054;DHT22;3055;50.886;14.814;2023-09-30T08:23:27;16.80;99.90
6054;DHT22;3055;50.886;14.814;2023-09-30T08:25:58;16.90;99.90
6054;DHT22;3055;50.886;14.814;2023-09-30T08:28:25;17.10;99.90
6054;DHT22;3055;50.886;14.814;2023-09-30T08:30:52;17.50;99.90
6054;DHT22;3055;50.886;14.814;2023-09-30T08:33:25;17.70;99.90
6054;DHT22;3055;50.886;14.814;2023-09-30T08:35:56;18.00;99.90
6054;DHT22;3055;50.886;14.814;2023-09-30T08:38:23;18.10;99.90
6054;DHT22;3055;50.886;14.814;2023-09-30T08:40:52;18.00;99.90
6054;DHT22;3055;50.886;14.814;2023-09-30T08:43:23;18.00;99.90
6054;DHT22;3055;50.886;14.814;2023-09-30T08:45:53;17.70;99.90
6054;DHT22;3055;50.886;14.814;2023-09-30T08:48:21;17.50;99.90
6054;DHT22;3055;50.886;14.814;2023-09-30T08:50:53;17.60;99.90
6054;DHT22;3055;50.886;14.814;2023-09-30T08:53:22;17.60;99.90
6054;DHT22;3055;50.886;14.814;2023-09-30T08:55:52;17.60;99.90
6054;DHT22;3055;50.886;14.814;2023-09-30T08:58:20;17.60;99.90
6054;DHT22;3055;50.886;14.814;2023-09-30T09:00:50;17.70;99.90
6054;DHT22;3055;50.886;14.814;2023-09-30T09:03:19;17.80;99.90
6054;DHT22;3055;50.886;14.814;2023-09-30T09:05:46;17.80;99.90
6054;DHT22;3055;50.886;14.814;2023-09-30T09:08:15;17.80;99.90
6054;DHT22;3055;50.886;14.814;2023-09-30T09:10:55;17.90;99.90
6054;DHT22;3055;50.886;14.814;2023-09-30T09:13:23;18.10;99.90
6054;DHT22;3055;50.886;14.814;2023-09-30T09:16:05;18.30;99.90
6054;DHT22;3055;50.886;14.814;2023-09-30T09:18:34;18.00;87.40
6054;DHT22;3055;50.886;14.814;2023-09-30T09:21:12;18.10;91.10
6054;DHT22;3055;50.886;14.814;2023-09-30T09:23:44;18.10;82.10
6054;DHT22;3055;50.886;14.814;2023-09-30T09:26:12;18.30;84.90
6054;DHT22;3055;50.886;14.814;2023-09-30T09:28:40;18.10;65.00
6054;DHT22;3055;50.886;14.814;2023-09-30T09:31:21;18.20;75.90
6054;DHT22;3055;50.886;14.814;2023-09-30T09:33:48;18.20;73.90
6054;DHT22;3055;50.886;14.814;2023-09-30T09:36:15;18.30;87.00
6054;DHT22;3055;50.886;14.814;2023-09-30T09:38:49;18.30;70.40
6054;DHT22;3055;50.886;14.814;2023-09-30T09:41:19;18.20;60.80
6054;DHT22;3055;50.886;14.814;2023-09-30T09:43:48;18.30;74.40
6054;DHT22;3055;50.886;14.814;2023-09-30T09:46:16;18.30;57.80
6054;DHT22;3055;50.886;14.814;2023-09-30T09:48:45;18.50;65.60
6054;DHT22;3055;50.886;14.814;2023-09-30T09:51:13;18.70;63.80
6054;DHT22;3055;50.886;14.814;2023-09-30T09:53:41;18.90;42.10
6054;DHT22;3055;50.886;14.814;2023-09-30T09:56:10;19.10;32.70
6054;DHT22;3055;50.886;14.814;2023-09-30T09:58:40;19.10;22.00
6054;DHT22;3055;50.886;14.814;2023-09-30T10:01:09;19.10;22.60
6054;DHT22;3055;50.886;14.814;2023-09-30T10:03:40;19.20;16.40
6054;DHT22;3055;50.886;14.814;2023-09-30T10:06:07;19.40;15.00
6054;DHT22;3055;50.886;14.814;2023-09-30T10:08:39;19.20;6.90
6054;DHT22;3055;50.886;14.814;2023-09-30T10:11:07;19.30;9.50
6054;DHT22;3055;50.886;14.814;2023-09-30T10:13:55;18.90;1.00
6054;DHT22;3055;50.886;14.814;2023-09-30T10:16:47;18.70;1.00
6054;DHT22;3055;50.886;14.814;2023-09-30T10:19:15;18.80;1.00
6054;DHT22;3055;50.886;14.814;2023-09-30T10:24:44;19.10;1.00
6054;DHT22;3055;50.886;14.814;2023-09-30T10:27:34;19.10;1.00
6054;DHT22;3055;50.886;14.814;2023-09-30T10:30:11;19.20;1.00
6054;DHT22;3055;50.886;14.814;2023-09-30T10:33:09;19.40;1.00
6054;DHT22;3055;50.886;14.814;2023-09-30T10:35:50;19.50;1.00
6054;DHT22;3055;50.886;14.814;2023-09-30T10:38:38;19.80;1.00
6054;DHT22;3055;50.886;14.814;2023-09-30T10:41:09;19.80;1.00
6054;DHT22;3055;50.886;14.814;2023-09-30T10:43:39;19.70;1.00
6054;DHT22;3055;50.886;14.814;2023-09-30T10:46:31;19.70;1.00
6054;DHT22;3055;50.886;14.814;2023-09-30T10:49:31;19.40;1.00
6054;DHT22;3055;50.886;14.814;2023-09-30T10:51:59;19.20;1.00
6054;DHT22;3055;50.886;14.814;2023-09-30T10:54:27;19.20;1.00
6054;DHT22;3055;50.886;14.814;2023-09-30T10:56:55;19.20;1.00
6054;DHT22;3055;50.886;14.814;2023-09-30T10:59:26;19.10;1.00
6054;DHT22;3055;50.886;14.814;2023-09-30T11:01:54;18.90;1.00
6054;DHT22;3055;50.886;14.814;2023-09-30T11:04:22;18.80;1.00
6054;DHT22;3055;50.886;14.814;2023-09-30T11:06:49;18.70;1.00
6054;DHT22;3055;50.886;14.814;2023-09-30T11:09:17;18.80;1.00
6054;DHT22;3055;50.886;14.814;2023-09-30T11:11:46;18.80;1.00
6054;DHT22;3055;50.886;14.814;2023-09-30T11:14:24;19.00;1.00
6054;DHT22;3055;50.886;14.814;2023-09-30T11:16:54;19.30;1.00
6054;DHT22;3055;50.886;14.814;2023-09-30T11:19:22;19.70;1.00
6054;DHT22;3055;50.886;14.814;2023-09-30T11:21:51;19.80;1.00
6054;DHT22;3055;50.886;14.814;2023-09-30T11:24:18;19.70;1.00
6054;DHT22;3055;50.886;14.814;2023-09-30T11:26:46;19.60;1.00
6054;DHT22;3055;50.886;14.814;2023-09-30T11:29:14;19.60;1.00
6054;DHT22;3055;50.886;14.814;2023-09-30T11:31:44;19.60;1.00
6054;DHT22;3055;50.886;14.814;2023-09-30T11:34:15;19.40;1.00
6054;DHT22;3055;50.886;14.814;2023-09-30T11:36:48;19.20;1.00
6054;DHT22;3055;50.886;14.814;2023-09-30T11:39:22;19.10;1.00
6054;DHT22;3055;50.886;14.814;2023-09-30T11:41:50;19.30;1.00
6054;DHT22;3055;50.886;14.814;2023-09-30T11:44:18;19.60;1.00
6054;DHT22;3055;50.886;14.814;2023-09-30T11:46:50;19.80;1.00
6054;DHT22;3055;50.886;14.814;2023-09-30T11:49:30;20.20;1.00
6054;DHT22;3055;50.886;14.814;2023-09-30T11:51:58;20.40;1.00
6054;DHT22;3055;50.886;14.814;2023-09-30T11:54:30;20.60;1.00
6054;DHT22;3055;50.886;14.814;2023-09-30T11:56:57;21.00;1.00
6054;DHT22;3055;50.886;14.814;2023-09-30T11:59:24;21.20;1.00
6054;DHT22;3055;50.886;14.814;2023-09-30T12:01:52;21.30;1.00
6054;DHT22;3055;50.886;14.814;2023-09-30T12:04:20;21.30;1.00
6054;DHT22;3055;50.886;14.814;2023-09-30T12:06:49;21.30;1.00
6054;DHT22;3055;50.886;14.814;2023-09-30T12:09:16;21.00;1.00
6054;DHT22;3055;50.886;14.814;2023-09-30T12:11:48;20.80;1.00
6054;DHT22;3055;50.886;14.814;2023-09-30T12:14:15;20.60;1.00
6054;DHT22;3055;50.886;14.814;2023-09-30T12:16:43;20.70;1.00
6054;DHT22;3055;50.886;14.814;2023-09-30T12:19:11;20.70;1.00
6054;DHT22;3055;50.886;14.814;2023-09-30T12:21:39;20.90;1.00
6054;DHT22;3055;50.886;14.814;2023-09-30T12:24:08;20.90;1.00
6054;DHT22;3055;50.886;14.814;2023-09-30T12:26:36;20.90;1.00
6054;DHT22;3055;50.886;14.814;2023-09-30T12:29:04;20.90;1.00
6054;DHT22;3055;50.886;14.814;2023-09-30T12:31:31;21.10;1.00
6054;DHT22;3055;50.886;14.814;2023-09-30T12:33:59;21.20;1.00
6054;DHT22;3055;50.886;14.814;2023-09-30T12:36:26;21.20;1.00
6054;DHT22;3055;50.886;14.814;2023-09-30T12:38:53;21.20;1.00
6054;DHT22;3055;50.886;14.814;2023-09-30T12:41:22;21.40;1.00
6054;DHT22;3055;50.886;14.814;2023-09-30T12:43:49;21.60;1.00
6054;DHT22;3055;50.886;14.814;2023-09-30T12:46:16;21.70;1.00
6054;DHT22;3055;50.886;14.814;2023-09-30T12:48:44;21.60;1.00
6054;DHT22;3055;50.886;14.814;2023-09-30T12:51:11;21.60;1.00
6054;DHT22;3055;50.886;14.814;2023-09-30T12:53:38;21.60;1.00
6054;DHT22;3055;50.886;14.814;2023-09-30T12:56:05;21.70;1.00
6054;DHT22;3055;50.886;14.814;2023-09-30T12:58:34;21.70;1.00
6054;DHT22;3055;50.886;14.814;2023-09-30T13:01:01;21.80;1.00
6054;DHT22;3055;50.886;14.814;2023-09-30T13:03:28;22.20;1.00
6054;DHT22;3055;50.886;14.814;2023-09-30T13:05:55;22.50;1.00
6054;DHT22;3055;50.886;14.814;2023-09-30T13:08:22;22.90;1.00
6054;DHT22;3055;50.886;14.814;2023-09-30T13:10:49;22.90;1.00
6054;DHT22;3055;50.886;14.814;2023-09-30T13:13:18;22.90;1.00
6054;DHT22;3055;50.886;14.814;2023-09-30T13:15:46;22.80;1.00
6054;DHT22;3055;50.886;14.814;2023-09-30T13:18:13;22.70;1.00
6054;DHT22;3055;50.886;14.814;2023-09-30T13:20:40;22.50;1.00
6054;DHT22;3055;50.886;14.814;2023-09-30T13:23:07;22.60;1.00
6054;DHT22;3055;50.886;14.814;2023-09-30T13:25:34;22.60;1.00
6054;DHT22;3055;50.886;14.814;2023-09-30T13:28:02;22.70;1.00
6054;DHT22;3055;50.886;14.814;2023-09-30T13:30:29;22.70;1.00
6054;DHT22;3055;50.886;14.814;2023-09-30T13:32:57;22.90;1.00
6054;DHT22;3055;50.886;14.814;2023-09-30T13:35:24;22.90;1.00
6054;DHT22;3055;50.886;14.814;2023-09-30T13:37:51;23.20;1.00
6054;DHT22;3055;50.886;14.814;2023-09-30T13:40:18;23.00;1.00
6054;DHT22;3055;50.886;14.814;2023-09-30T13:42:46;23.30;1.00
6054;DHT22;3055;50.886;14.814;2023-09-30T13:45:13;23.40;1.00
6054;DHT22;3055;50.886;14.814;2023-09-30T13:47:42;23.70;1.00
6054;DHT22;3055;50.886;14.814;2023-09-30T13:50:11;23.70;1.00
6054;DHT22;3055;50.886;14.814;2023-09-30T13:52:38;23.60;1.00
6054;DHT22;3055;50.886;14.814;2023-09-30T13:55:05;24.00;1.00
6054;DHT22;3055;50.886;14.814;2023-09-30T13:57:33;24.10;1.00
6054;DHT22;3055;50.886;14.814;2023-09-30T14:00:01;23.80;1.00
6054;DHT22;3055;50.886;14.814;2023-09-30T14:02:28;24.10;1.00
6054;DHT22;3055;50.886;14.814;2023-09-30T14:04:55;24.40;1.00
6054;DHT22;3055;50.886;14.814;2023-09-30T14:07:24;24.70;1.00
6054;DHT22;3055;50.886;14.814;2023-09-30T14:09:52;24.90;1.00
6054;DHT22;3055;50.886;14.814;2023-09-30T14:12:19;24.80;1.00
6054;DHT22;3055;50.886;14.814;2023-09-30T14:14:46;25.00;1.00
6054;DHT22;3055;50.886;14.814;2023-09-30T14:17:13;25.40;1.00
6054;DHT22;3055;50.886;14.814;2023-09-30T14:19:41;25.40;1.00
6054;DHT22;3055;50.886;14.814;2023-09-30T14:22:08;25.20;1.00
6054;DHT22;3055;50.886;14.814;2023-09-30T14:24:36;25.20;1.00
6054;DHT22;3055;50.886;14.814;2023-09-30T14:27:04;25.10;1.00
6054;DHT22;3055;50.886;14.814;2023-09-30T14:29:31;24.90;1.00
6054;DHT22;3055;50.886;14.814;2023-09-30T14:31:59;24.60;1.00
6054;DHT22;3055;50.886;14.814;2023-09-30T14:34:26;24.60;1.00
6054;DHT22;3055;50.886;14.814;2023-09-30T14:36:53;24.40;1.00
6054;DHT22;3055;50.886;14.814;2023-09-30T14:39:20;24.20;1.00
6054;DHT22;3055;50.886;14.814;2023-09-30T14:41:49;24.30;1.00
6054;DHT22;3055;50.886;14.814;2023-09-30T14:44:16;24.40;1.00
6054;DHT22;3055;50.886;14.814;2023-09-30T14:46:43;24.40;1.00
6054;DHT22;3055;50.886;14.814;2023-09-30T14:49:10;24.30;1.00
6054;DHT22;3055;50.886;14.814;2023-09-30T14:51:37;24.70;1.00
6054;DHT22;3055;50.886;14.814;2023-09-30T14:54:05;24.60;1.00
6054;DHT22;3055;50.886;14.814;2023-09-30T14:56:32;24.70;1.00
6054;DHT22;3055;50.886;14.814;2023-09-30T14:59:00;24.90;1.00
6054;DHT22;3055;50.886;14.814;2023-09-30T15:01:29;25.00;1.00
6054;DHT22;3055;50.886;14.814;2023-09-30T15:03:56;24.70;1.00
6054;DHT22;3055;50.886;14.814;2023-09-30T15:06:24;24.60;1.00
6054;DHT22;3055;50.886;14.814;2023-09-30T15:08:51;24.80;1.00
6054;DHT22;3055;50.886;14.814;2023-09-30T15:11:18;24.50;1.00
6054;DHT22;3055;50.886;14.814;2023-09-30T15:13:45;24.50;1.00
6054;DHT22;3055;50.886;14.814;2023-09-30T15:16:18;24.30;1.00
6054;DHT22;3055;50.886;14.814;2023-09-30T15:18:45;24.40;1.00
6054;DHT22;3055;50.886;14.814;2023-09-30T15:21:13;24.10;1.00
6054;DHT22;3055;50.886;14.814;2023-09-30T15:23:40;24.00;1.00
6054;DHT22;3055;50.886;14.814;2023-09-30T15:26:08;23.40;1.00
6054;DHT22;3055;50.886;14.814;2023-09-30T15:28:36;22.60;1.00
6054;DHT22;3055;50.886;14.814;2023-09-30T15:31:03;21.60;1.00
6054;DHT22;3055;50.886;14.814;2023-09-30T15:33:33;20.90;1.00
6054;DHT22;3055;50.886;14.814;2023-09-30T15:36:08;20.40;1.00
6054;DHT22;3055;50.886;14.814;2023-09-30T15:38:36;19.90;1.00
6054;DHT22;3055;50.886;14.814;2023-09-30T15:41:03;19.60;1.00
6054;DHT22;3055;50.886;14.814;2023-09-30T15:43:31;19.40;1.00
6054;DHT22;3055;50.886;14.814;2023-09-30T15:45:59;19.20;1.00
6054;DHT22;3055;50.886;14.814;2023-09-30T15:48:26;19.00;1.00
6054;DHT22;3055;50.886;14.814;2023-09-30T15:50:55;18.80;1.00
6054;DHT22;3055;50.886;14.814;2023-09-30T15:53:22;18.60;1.00
6054;DHT22;3055;50.886;14.814;2023-09-30T15:55:49;18.50;1.00
6054;DHT22;3055;50.886;14.814;2023-09-30T15:58:16;18.40;1.00
6054;DHT22;3055;50.886;14.814;2023-09-30T16:00:44;18.30;1.00
6054;DHT22;3055;50.886;14.814;2023-09-30T16:03:12;18.20;1.00
6054;DHT22;3055;50.886;14.814;2023-09-30T16:05:39;18.00;1.00
6054;DHT22;3055;50.886;14.814;2023-09-30T16:08:08;17.90;1.00
6054;DHT22;3055;50.886;14.814;2023-09-30T16:10:36;17.70;1.00